Time;durP1;ratioP1;P1;durP2;ratioP2;P2;SDS_P1;SDS_P2;PMS_P1;PMS_P2;Temp;Humidity;BMP_temperature;BMP_pressure;BME280_temperature;BME280_humidity;BME280_pressure;Samples;Min_cycle;Max_cycle;Signal;HPM_P1;HPM_P2
2023/01/26 00:01:08;;;;;;;15.43;8.90;;;3.90;93.80;;;;;;5034426;28;20205;-62
2023/01/26 00:03:36;;;;;;;15.37;8.57;;;3.90;93.80;;;;;;5046231;28;20259;-62
2023/01/26 00:06:04;;;;;;;13.23;8.13;;;3.80;93.80;;;;;;5047664;28;20744;-62
2023/01/26 00:08:36;;;;;;;16.50;9.07;;;3.80;93.80;;;;;;5027678;28;20666;-63
2023/01/26 00:11:05;;;;;;;17.20;9.37;;;3.90;93.80;;;;;;5045528;28;20275;-62
2023/01/26 00:13:32;;;;;;;21.80;9.93;;;3.90;93.70;;;;;;5059901;28;20204;-62
2023/01/26 00:15:59;;;;;;;20.77;9.57;;;3.90;93.80;;;;;;5045671;28;20201;-63
2023/01/26 00:18:26;;;;;;;19.03;9.60;;;3.90;93.80;;;;;;5047424;28;20676;-61
2023/01/26 00:20:56;;;;;;;17.17;8.87;;;3.90;93.80;;;;;;5047166;28;20217;-63
2023/01/26 00:23:24;;;;;;;14.43;8.00;;;3.90;93.80;;;;;;5043503;28;20548;-62
2023/01/26 00:25:52;;;;;;;15.57;8.37;;;4.00;93.80;;;;;;5048837;28;20226;-62
2023/01/26 00:28:19;;;;;;;15.80;9.20;;;4.00;93.80;;;;;;5051502;28;20193;-62
2023/01/26 00:30:46;;;;;;;18.50;9.47;;;4.00;93.70;;;;;;5042726;28;20198;-62
2023/01/26 00:33:14;;;;;;;17.20;9.70;;;4.00;93.80;;;;;;5049231;28;20213;-62
2023/01/26 00:35:43;;;;;;;15.90;8.90;;;4.00;93.80;;;;;;5046642;28;20746;-62
2023/01/26 00:38:11;;;;;;;17.77;8.80;;;4.00;93.80;;;;;;5047781;28;20185;-63
2023/01/26 00:40:39;;;;;;;13.07;7.67;;;3.90;93.80;;;;;;5045952;28;20216;-63
2023/01/26 00:43:07;;;;;;;11.70;7.27;;;3.90;93.90;;;;;;5077158;28;20623;-62
2023/01/26 00:45:35;;;;;;;10.93;7.00;;;3.90;93.80;;;;;;5044134;28;20190;-63
2023/01/26 00:48:05;;;;;;;9.20;6.10;;;3.90;93.90;;;;;;5047971;28;20193;-61
2023/01/26 00:50:33;;;;;;;11.17;6.17;;;4.00;93.90;;;;;;5045491;28;20553;-62
2023/01/26 00:53:00;;;;;;;9.20;6.17;;;4.00;94.20;;;;;;5044542;28;20614;-63
2023/01/26 00:55:31;;;;;;;15.13;6.87;;;4.00;93.90;;;;;;5044573;28;20564;-62
2023/01/26 00:58:00;;;;;;;11.40;7.37;;;4.00;93.80;;;;;;5046564;28;20186;-63
2023/01/26 01:00:32;;;;;;;11.23;7.03;;;4.00;93.80;;;;;;5045360;28;20201;-62
2023/01/26 01:03:00;;;;;;;13.10;7.50;;;4.00;93.90;;;;;;5047719;28;20666;-62
2023/01/26 01:05:29;;;;;;;19.07;9.50;;;4.00;93.90;;;;;;5046250;28;20198;-62
2023/01/26 01:07:57;;;;;;;17.87;9.20;;;4.00;93.90;;;;;;5071994;28;20565;-62
2023/01/26 01:10:25;;;;;;;13.97;7.90;;;3.90;93.90;;;;;;5048681;28;20189;-62
2023/01/26 01:12:54;;;;;;;13.70;7.50;;;3.90;93.90;;;;;;5043960;28;20293;-62
2023/01/26 01:15:21;;;;;;;19.83;10.13;;;3.90;93.90;;;;;;5047897;28;20197;-62
2023/01/26 01:17:49;;;;;;;20.77;10.80;;;4.00;94.00;;;;;;5044586;28;20228;-63
2023/01/26 01:20:16;;;;;;;17.80;9.03;;;3.90;93.90;;;;;;5040505;28;20281;-63
2023/01/26 01:22:43;;;;;;;14.20;7.97;;;3.90;94.00;;;;;;5045494;28;20194;-63
2023/01/26 01:25:11;;;;;;;17.70;9.70;;;3.90;94.00;;;;;;5043197;28;20260;-62
2023/01/26 01:27:38;;;;;;;15.90;9.30;;;3.90;94.00;;;;;;5041908;28;20194;-62
2023/01/26 01:30:07;;;;;;;19.90;10.57;;;3.30;93.80;;;;;;5046058;28;20265;-63
2023/01/26 01:32:35;;;;;;;20.03;11.33;;;3.90;94.10;;;;;;5045852;28;20243;-63
2023/01/26 01:35:04;;;;;;;16.87;9.37;;;3.80;94.10;;;;;;5041081;28;20194;-63
2023/01/26 01:37:32;;;;;;;15.23;8.90;;;3.90;94.20;;;;;;5045796;28;20252;-63
2023/01/26 01:39:59;;;;;;;19.60;9.23;;;3.80;94.10;;;;;;5044018;28;20190;-63
2023/01/26 01:42:27;;;;;;;13.77;8.17;;;3.90;94.10;;;;;;5042450;28;20222;-61
2023/01/26 01:45:37;;;;;;;13.00;7.87;;;3.90;94.10;;;;;;5045636;28;20205;-62
2023/01/26 01:48:06;;;;;;;15.80;8.83;;;3.90;94.10;;;;;;5044898;28;20432;-62
2023/01/26 01:50:39;;;;;;;11.47;7.00;;;3.90;94.10;;;;;;5046269;28;20679;-62
2023/01/26 01:53:14;;;;;;;13.90;8.40;;;3.90;94.10;;;;;;5045597;28;20566;-62
2023/01/26 01:55:42;;;;;;;12.80;7.53;;;3.90;94.10;;;;;;5044429;28;20189;-61
2023/01/26 01:58:09;;;;;;;16.97;8.37;;;3.90;94.10;;;;;;5046203;28;20277;-62
2023/01/26 02:00:36;;;;;;;12.60;7.70;;;3.90;94.10;;;;;;5045740;28;20228;-62
2023/01/26 02:03:14;;;;;;;12.17;7.63;;;3.90;94.00;;;;;;5041048;28;20197;-61
2023/01/26 02:05:52;;;;;;;21.33;10.50;;;3.60;93.90;;;;;;5047525;28;20203;-63
2023/01/26 02:08:21;;;;;;;15.10;8.50;;;3.90;94.00;;;;;;5045644;28;20298;-62
2023/01/26 02:10:50;;;;;;;13.70;8.33;;;3.90;94.10;;;;;;5043218;28;20228;-62
2023/01/26 02:13:18;;;;;;;13.60;8.07;;;3.90;94.10;;;;;;5060062;28;20684;-62
2023/01/26 02:15:46;;;;;;;13.67;8.50;;;3.90;94.10;;;;;;5043705;28;20576;-61
2023/01/26 02:18:15;;;;;;;14.13;7.90;;;3.90;94.10;;;;;;5043529;28;20622;-62
2023/01/26 02:20:47;;;;;;;14.67;8.03;;;3.90;94.30;;;;;;5044286;28;20672;-61
2023/01/26 02:23:28;;;;;;;12.77;7.63;;;3.90;94.20;;;;;;5043642;28;20198;-62
2023/01/26 02:26:16;;;;;;;9.43;6.50;;;3.90;94.20;;;;;;5046135;28;20189;-61
2023/01/26 02:28:44;;;;;;;11.27;6.90;;;4.00;94.10;;;;;;5042693;28;20248;-62
2023/01/26 02:31:12;;;;;;;11.53;6.43;;;4.00;94.10;;;;;;5041373;28;20205;-61
2023/01/26 02:33:41;;;;;;;14.07;7.87;;;4.00;94.10;;;;;;5044368;28;20218;-61
2023/01/26 02:36:17;;;;;;;15.10;7.80;;;4.00;94.10;;;;;;5047328;28;20197;-62
2023/01/26 02:38:48;;;;;;;11.77;7.43;;;4.00;94.10;;;;;;5042507;28;20506;-61
2023/01/26 02:42:37;;;;;;;11.90;6.90;;;4.10;94.10;;;;;;5043263;28;20240;-61
2023/01/26 02:44:07;;;;;;;15.87;8.97;;;4.10;94.00;;;;;;5043917;28;20616;-62
2023/01/26 02:46:34;;;;;;;13.90;8.27;;;4.10;94.10;;;;;;5039217;28;20186;-62
2023/01/26 02:51:47;;;;;;;14.50;7.77;;;3.90;94.10;;;;;;4999329;28;20198;-62
2023/01/26 02:56:59;;;;;;;14.40;8.00;;;3.90;94.10;;;;;;5046190;28;20201;-62
2023/01/26 02:59:26;;;;;;;11.00;6.40;;;3.90;94.20;;;;;;5040831;28;20280;-62
2023/01/26 03:01:55;;;;;;;10.97;7.23;;;3.90;94.20;;;;;;5044388;28;20612;-62
2023/01/26 03:04:22;;;;;;;15.00;8.50;;;3.90;94.20;;;;;;5041796;28;20207;-62
2023/01/26 03:06:50;;;;;;;11.87;7.03;;;3.90;94.20;;;;;;5040673;28;20197;-61
2023/01/26 03:09:17;;;;;;;12.53;7.47;;;3.90;94.20;;;;;;5043316;28;20198;-62
2023/01/26 03:11:44;;;;;;;11.90;6.63;;;3.90;94.20;;;;;;5044368;28;20197;-61
2023/01/26 03:14:14;;;;;;;11.43;6.67;;;3.90;94.30;;;;;;5038147;28;20585;-61
2023/01/26 03:16:41;;;;;;;12.23;7.30;;;3.90;94.30;;;;;;5044612;28;20300;-62
2023/01/26 03:27:41;;;;;;;8.97;5.40;;;4.00;94.30;;;;;;5040808;28;20197;-61
2023/01/26 03:30:11;;;;;;;10.57;6.13;;;4.00;94.20;;;;;;5043445;28;20323;-62
2023/01/26 03:32:39;;;;;;;7.80;5.17;;;4.00;94.30;;;;;;5043135;28;20677;-61
2023/01/26 03:35:14;;;;;;;10.03;6.27;;;4.00;94.30;;;;;;5043485;28;20210;-61
2023/01/26 03:37:45;;;;;;;15.17;8.10;;;4.00;94.30;;;;;;5043147;28;20228;-62
2023/01/26 03:56:54;;;;;;;13.23;7.87;;;4.00;94.50;;;;;;5045031;28;20193;-62
2023/01/26 03:59:36;;;;;;;13.23;7.97;;;4.10;94.50;;;;;;5049146;28;20293;-63
2023/01/26 04:10:22;;;;;;;15.07;7.80;;;4.10;94.40;;;;;;5074284;28;20292;-61
2023/01/26 04:23:55;;;;;;;17.60;9.77;;;4.10;94.30;;;;;;5042623;28;20196;-63
2023/01/26 04:26:23;;;;;;;16.57;9.33;;;4.00;94.40;;;;;;5045816;28;20202;-62
2023/01/26 04:28:51;;;;;;;16.07;8.93;;;4.10;94.50;;;;;;5048787;28;20396;-62
2023/01/26 04:31:18;;;;;;;18.27;9.30;;;4.10;94.50;;;;;;5043094;28;20542;-62
2023/01/26 04:33:50;;;;;;;16.60;9.20;;;4.10;94.40;;;;;;5061462;28;20214;-62
2023/01/26 04:36:17;;;;;;;14.37;7.80;;;4.20;94.40;;;;;;5047675;28;20276;-62
2023/01/26 04:38:48;;;;;;;10.53;6.63;;;4.20;94.40;;;;;;5040608;28;20202;-62
2023/01/26 04:41:18;;;;;;;18.83;10.43;;;4.20;94.40;;;;;;5046214;28;20597;-62
2023/01/26 04:43:50;;;;;;;15.67;9.00;;;4.10;94.30;;;;;;5047737;28;20277;-61
2023/01/26 04:46:17;;;;;;;16.57;9.53;;;4.10;94.40;;;;;;5041937;28;20237;-63
2023/01/26 04:48:46;;;;;;;18.97;9.37;;;4.10;94.50;;;;;;5048238;28;20201;-63
2023/01/26 04:51:16;;;;;;;17.00;8.83;;;4.10;94.50;;;;;;5046511;28;20201;-63
2023/01/26 04:53:43;;;;;;;14.87;7.93;;;4.10;94.50;;;;;;5040756;28;20233;-62
2023/01/26 04:56:24;;;;;;;13.30;7.57;;;4.10;94.60;;;;;;5046209;28;20281;-62
2023/01/26 04:58:54;;;;;;;15.50;8.63;;;4.10;94.60;;;;;;5045276;28;20600;-62
2023/01/26 05:01:22;;;;;;;12.20;7.37;;;4.10;94.60;;;;;;5046233;28;20653;-62
2023/01/26 05:03:49;;;;;;;14.60;8.20;;;4.10;94.60;;;;;;5045946;28;20197;-62
2023/01/26 05:06:18;;;;;;;10.27;6.23;;;4.10;94.50;;;;;;5045170;28;20272;-61
2023/01/26 05:08:47;;;;;;;15.40;8.30;;;4.10;94.60;;;;;;5062655;28;20967;-61
2023/01/26 05:11:15;;;;;;;13.43;7.83;;;4.10;94.60;;;;;;5044905;28;20210;-61
2023/01/26 05:14:02;;;;;;;13.57;7.70;;;4.10;94.60;;;;;;5041864;28;20224;-61
2023/01/26 05:16:56;;;;;;;19.10;9.90;;;4.10;94.60;;;;;;5045926;28;20561;-62
2023/01/26 05:19:46;;;;;;;16.47;8.73;;;4.00;94.60;;;;;;5040398;28;20201;-62
2023/01/26 05:22:29;;;;;;;14.03;7.90;;;4.00;94.60;;;;;;5044591;28;20202;-62
2023/01/26 05:25:22;;;;;;;13.23;6.93;;;4.00;94.60;;;;;;5045417;28;20217;-62
2023/01/26 05:27:56;;;;;;;13.63;7.23;;;4.00;94.60;;;;;;5042365;28;20194;-62
2023/01/26 05:30:24;;;;;;;12.50;7.10;;;4.00;94.70;;;;;;5046844;28;20259;-61
2023/01/26 05:32:52;;;;;;;10.53;6.53;;;4.00;94.70;;;;;;5043941;28;20206;-62
2023/01/26 05:35:21;;;;;;;12.90;6.70;;;4.00;94.80;;;;;;5043454;28;20201;-61
2023/01/26 05:37:50;;;;;;;10.23;6.23;;;4.00;94.70;;;;;;5048380;28;20206;-62
2023/01/26 05:40:17;;;;;;;11.13;6.63;;;4.00;94.70;;;;;;5043889;28;20228;-60
2023/01/26 05:42:45;;;;;;;16.10;8.37;;;4.00;94.80;;;;;;5040101;28;20232;-62
2023/01/26 05:45:32;;;;;;;11.53;6.90;;;4.00;94.80;;;;;;5037007;28;20202;-62
2023/01/26 05:48:04;;;;;;;11.97;7.07;;;4.00;94.90;;;;;;5043407;28;20201;-62
2023/01/26 05:50:32;;;;;;;9.93;6.27;;;4.00;94.90;;;;;;5043908;28;20224;-62
2023/01/26 05:53:16;;;;;;;10.03;6.20;;;4.00;94.90;;;;;;5047373;28;20213;-62
2023/01/26 05:55:44;;;;;;;13.47;7.37;;;4.00;94.90;;;;;;5039110;28;20502;-63
2023/01/26 05:58:11;;;;;;;12.47;6.67;;;4.00;94.90;;;;;;5077705;28;20213;-62
2023/01/26 06:00:40;;;;;;;13.60;7.40;;;4.10;94.90;;;;;;5044056;28;20604;-63
2023/01/26 06:03:14;;;;;;;10.77;5.87;;;4.00;94.80;;;;;;5040236;28;20702;-63
2023/01/26 06:05:41;;;;;;;9.33;5.77;;;4.00;94.80;;;;;;5044382;28;20213;-62
2023/01/26 06:08:19;;;;;;;12.93;7.00;;;4.00;94.90;;;;;;5046881;28;20584;-63
2023/01/26 06:11:15;;;;;;;11.97;6.73;;;4.00;94.90;;;;;;5037027;28;20233;-61
2023/01/26 06:13:48;;;;;;;13.70;7.47;;;4.00;94.90;;;;;;5046911;28;20293;-62
2023/01/26 06:16:23;;;;;;;9.53;6.23;;;4.00;94.90;;;;;;5047421;28;20201;-63
2023/01/26 06:18:51;;;;;;;12.27;5.50;;;4.00;94.90;;;;;;5040905;28;20251;-62
2023/01/26 06:21:18;;;;;;;9.90;5.57;;;4.00;94.90;;;;;;5043857;28;20193;-63
2023/01/26 06:23:47;;;;;;;8.53;5.40;;;4.10;94.90;;;;;;5047540;28;20229;-62
2023/01/26 06:26:15;;;;;;;10.53;6.23;;;3.90;94.90;;;;;;5040890;28;20216;-62
2023/01/26 06:28:42;;;;;;;11.30;6.20;;;4.10;95.00;;;;;;5058701;28;20197;-60
2023/01/26 06:31:10;;;;;;;9.73;5.70;;;4.10;95.00;;;;;;5043924;28;20256;-62
2023/01/26 06:33:39;;;;;;;10.63;6.33;;;4.10;95.00;;;;;;5074058;28;20209;-62
2023/01/26 06:36:10;;;;;;;9.20;5.73;;;4.20;94.90;;;;;;5046973;28;20556;-62
2023/01/26 06:38:38;;;;;;;9.53;5.77;;;3.50;94.60;;;;;;5039498;28;20212;-62
2023/01/26 06:41:09;;;;;;;8.77;5.13;;;4.20;95.00;;;;;;5043524;28;20202;-61
2023/01/26 06:43:36;;;;;;;12.73;6.10;;;4.20;95.00;;;;;;5045669;28;20276;-63
2023/01/26 06:46:05;;;;;;;9.53;5.87;;;4.20;94.90;;;;;;5041846;28;20202;-62
2023/01/26 06:48:34;;;;;;;10.67;5.90;;;4.20;94.90;;;;;;5044374;28;20757;-65
2023/01/26 06:51:25;;;;;;;10.00;6.13;;;4.20;94.90;;;;;;5043629;28;20216;-63
2023/01/26 06:53:55;;;;;;;7.63;4.90;;;4.30;94.90;;;;;;5040252;28;20218;-62
2023/01/26 06:56:40;;;;;;;8.97;5.30;;;4.30;95.00;;;;;;5045214;28;20247;-63
2023/01/26 06:59:27;;;;;;;10.50;6.63;;;4.30;94.90;;;;;;5044579;28;20696;-62
2023/01/26 07:02:10;;;;;;;12.87;7.70;;;4.30;94.90;;;;;;5043454;28;20201;-62
2023/01/26 07:04:38;;;;;;;15.97;8.83;;;4.20;94.90;;;;;;5046255;28;20209;-62
2023/01/26 07:07:05;;;;;;;14.07;8.03;;;4.20;94.90;;;;;;5032302;28;20201;-62
2023/01/26 07:09:32;;;;;;;12.47;7.43;;;4.20;94.90;;;;;;5035405;28;20201;-63
2023/01/26 07:12:00;;;;;;;14.90;8.40;;;4.20;94.90;;;;;;5044709;28;20200;-63
2023/01/26 07:14:28;;;;;;;14.70;7.83;;;4.20;95.00;;;;;;5044458;28;20217;-63
2023/01/26 07:16:55;;;;;;;11.20;6.47;;;4.20;95.00;;;;;;5041386;28;20201;-62
2023/01/26 07:19:22;;;;;;;11.17;6.80;;;4.20;95.00;;;;;;5045879;28;21296;-62
2023/01/26 07:21:49;;;;;;;15.13;8.37;;;4.20;94.90;;;;;;5047956;28;20208;-61
2023/01/26 07:24:16;;;;;;;14.70;7.77;;;4.20;94.90;;;;;;5043421;28;20198;-62
2023/01/26 07:26:43;;;;;;;12.27;6.77;;;4.20;94.90;;;;;;5048083;28;20205;-62
2023/01/26 07:29:12;;;;;;;12.93;7.33;;;4.20;94.90;;;;;;5046722;28;20664;-62
2023/01/26 07:31:40;;;;;;;12.40;6.83;;;4.20;94.90;;;;;;5041682;28;20190;-62
2023/01/26 07:34:07;;;;;;;12.00;6.67;;;4.20;95.00;;;;;;5041197;28;20232;-61
2023/01/26 07:36:34;;;;;;;13.80;7.80;;;4.20;95.00;;;;;;5043122;28;20194;-62
2023/01/26 07:39:01;;;;;;;12.97;6.73;;;4.20;95.00;;;;;;5043061;28;20197;-62
2023/01/26 07:41:28;;;;;;;13.00;6.37;;;4.30;95.00;;;;;;5043779;28;20704;-62
2023/01/26 07:43:57;;;;;;;11.17;6.50;;;4.30;95.00;;;;;;5041667;28;20190;-61
2023/01/26 07:46:26;;;;;;;12.07;6.33;;;4.30;94.90;;;;;;5045089;28;20198;-62
2023/01/26 07:48:53;;;;;;;10.20;6.40;;;4.30;94.90;;;;;;5038154;28;20205;-62
2023/01/26 07:51:20;;;;;;;12.13;6.83;;;4.40;94.90;;;;;;5042921;28;20194;-62
2023/01/26 07:53:48;;;;;;;13.63;7.00;;;4.40;94.90;;;;;;5040184;28;20233;-62
2023/01/26 07:56:18;;;;;;;13.30;7.73;;;4.40;94.80;;;;;;5045029;28;20191;-62
2023/01/26 07:58:49;;;;;;;14.07;7.27;;;4.40;94.80;;;;;;5047946;28;20281;-61
2023/01/26 08:01:17;;;;;;;17.20;9.33;;;4.40;94.70;;;;;;5042577;28;20272;-63
2023/01/26 08:03:45;;;;;;;14.63;8.03;;;4.40;94.70;;;;;;5045437;28;20698;-62
2023/01/26 08:06:13;;;;;;;13.53;8.07;;;4.40;95.10;;;;;;5048568;28;20193;-63
2023/01/26 08:08:41;;;;;;;16.20;8.80;;;4.40;94.80;;;;;;5034632;28;20748;-62
2023/01/26 08:11:09;;;;;;;18.37;9.47;;;4.40;94.70;;;;;;5032828;28;20197;-62
2023/01/26 08:13:36;;;;;;;24.37;12.47;;;4.40;94.70;;;;;;5033194;28;20222;-62
2023/01/26 08:16:05;;;;;;;26.97;12.67;;;4.40;94.70;;;;;;5033947;28;20212;-62
2023/01/26 08:18:33;;;;;;;22.90;11.13;;;4.40;94.80;;;;;;5033652;28;20545;-63
2023/01/26 08:21:01;;;;;;;17.93;9.77;;;4.40;94.80;;;;;;5033082;28;20894;-62
2023/01/26 08:23:29;;;;;;;22.73;11.03;;;4.30;94.80;;;;;;5033840;28;20201;-62
2023/01/26 08:26:00;;;;;;;22.03;11.23;;;4.30;94.80;;;;;;5032360;28;20215;-62
2023/01/26 08:28:27;;;;;;;18.37;9.90;;;4.30;94.90;;;;;;5042407;28;20200;-62
2023/01/26 08:30:54;;;;;;;22.13;11.23;;;4.30;94.90;;;;;;5044593;28;20592;-62
2023/01/26 08:33:22;;;;;;;18.17;9.47;;;4.30;95.00;;;;;;5047344;28;20217;-62
2023/01/26 08:35:49;;;;;;;16.77;8.23;;;4.30;95.10;;;;;;5044829;28;20734;-62
2023/01/26 08:38:17;;;;;;;17.77;10.13;;;4.20;95.10;;;;;;5045391;28;20197;-62
2023/01/26 08:40:44;;;;;;;19.00;9.63;;;4.30;95.20;;;;;;5046319;28;20201;-62
2023/01/26 08:43:12;;;;;;;24.13;11.07;;;4.20;95.10;;;;;;5046361;28;20243;-63
2023/01/26 08:45:39;;;;;;;17.70;8.80;;;4.20;95.10;;;;;;5040441;28;20566;-61
2023/01/26 08:48:07;;;;;;;22.07;10.40;;;4.30;95.20;;;;;;5046022;28;20251;-62
2023/01/26 08:50:34;;;;;;;19.13;9.93;;;4.30;95.20;;;;;;5045570;28;20194;-63
2023/01/26 08:53:01;;;;;;;19.93;9.63;;;4.30;95.20;;;;;;5047039;28;20271;-61
2023/01/26 08:55:31;;;;;;;15.60;8.73;;;4.30;95.20;;;;;;5059508;28;20229;-62
2023/01/26 08:57:59;;;;;;;18.23;9.23;;;4.40;95.30;;;;;;5044512;28;20244;-62
2023/01/26 09:00:27;;;;;;;19.07;9.57;;;4.40;95.30;;;;;;5045955;28;20852;-61
2023/01/26 09:02:59;;;;;;;24.70;11.27;;;4.40;95.20;;;;;;5043406;28;20585;-62
2023/01/26 09:05:27;;;;;;;17.30;9.23;;;4.40;95.20;;;;;;5048115;28;20189;-63
2023/01/26 09:07:54;;;;;;;24.80;11.77;;;4.40;95.30;;;;;;5041963;28;20308;-62
2023/01/26 09:10:21;;;;;;;22.13;11.13;;;4.40;95.30;;;;;;5046352;28;20194;-62
2023/01/26 09:12:50;;;;;;;26.50;12.47;;;4.40;95.40;;;;;;5044882;28;20235;-62
2023/01/26 09:15:17;;;;;;;29.13;12.53;;;4.40;95.60;;;;;;5043783;28;20707;-63
2023/01/26 09:17:44;;;;;;;24.83;12.37;;;4.30;95.50;;;;;;5042110;28;20205;-63
2023/01/26 09:20:12;;;;;;;20.07;10.27;;;4.30;95.60;;;;;;5041414;28;20206;-61
2023/01/26 09:22:39;;;;;;;23.93;11.13;;;4.30;95.70;;;;;;5043853;28;20205;-62
2023/01/26 09:25:07;;;;;;;21.20;10.13;;;4.30;95.80;;;;;;5041765;28;20267;-63
2023/01/26 09:27:35;;;;;;;18.60;9.40;;;4.30;95.80;;;;;;5046502;28;20200;-62
2023/01/26 09:30:05;;;;;;;13.90;8.23;;;4.30;95.90;;;;;;5043098;28;20190;-62
2023/01/26 09:32:32;;;;;;;19.47;9.80;;;4.40;95.90;;;;;;5042021;28;20206;-63
2023/01/26 09:35:00;;;;;;;16.30;8.67;;;4.40;95.90;;;;;;5042321;28;20217;-63
2023/01/26 09:37:27;;;;;;;19.17;9.23;;;4.40;95.90;;;;;;5045366;28;20204;-63
2023/01/26 09:39:54;;;;;;;26.60;11.97;;;4.40;95.90;;;;;;5045168;28;20212;-62
2023/01/26 09:42:35;;;;;;;21.07;10.37;;;4.40;95.90;;;;;;5045927;28;20240;-62
2023/01/26 09:45:17;;;;;;;19.30;8.83;;;4.40;95.90;;;;;;5042406;28;20182;-63
2023/01/26 09:47:58;;;;;;;21.43;10.60;;;4.50;95.90;;;;;;5045115;28;20201;-62
2023/01/26 09:50:30;;;;;;;21.37;10.03;;;4.50;95.90;;;;;;5045147;28;20619;-62
2023/01/26 09:53:02;;;;;;;17.87;9.50;;;4.40;95.90;;;;;;5044266;28;20644;-62
2023/01/26 09:55:30;;;;;;;25.13;11.83;;;4.40;96.00;;;;;;5041342;28;20265;-62
2023/01/26 09:58:01;;;;;;;19.00;10.03;;;4.40;96.00;;;;;;5041238;28;20224;-63
2023/01/26 10:00:37;;;;;;;18.60;9.33;;;4.40;96.10;;;;;;5044593;28;20196;-62
2023/01/26 10:03:17;;;;;;;19.17;9.80;;;4.40;96.20;;;;;;5041830;28;20197;-61
2023/01/26 10:05:50;;;;;;;28.17;13.23;;;4.40;96.20;;;;;;5041320;28;20213;-62
2023/01/26 10:08:41;;;;;;;33.50;14.93;;;4.40;96.20;;;;;;5044637;28;20217;-62
2023/01/26 10:11:16;;;;;;;33.30;14.33;;;4.40;96.30;;;;;;5042617;28;20194;-63
2023/01/26 10:13:50;;;;;;;30.77;13.63;;;4.40;96.40;;;;;;5043426;28;20239;-62
2023/01/26 10:16:24;;;;;;;25.03;11.77;;;4.30;96.40;;;;;;5040917;28;20206;-63
2023/01/26 10:18:56;;;;;;;24.37;11.20;;;4.30;96.50;;;;;;5041589;28;20213;-63
2023/01/26 10:21:30;;;;;;;24.30;11.63;;;4.40;96.50;;;;;;5043002;28;20205;-62
2023/01/26 10:24:01;;;;;;;29.17;12.80;;;4.40;96.60;;;;;;5041301;28;20197;-62
2023/01/26 10:26:32;;;;;;;25.93;12.23;;;4.40;96.60;;;;;;5044746;28;20649;-62
2023/01/26 10:29:00;;;;;;;24.33;11.57;;;4.40;96.60;;;;;;5043457;28;20196;-63
2023/01/26 10:31:31;;;;;;;22.13;10.77;;;4.40;96.70;;;;;;5047678;28;20194;-62
2023/01/26 10:34:00;;;;;;;24.20;11.50;;;4.40;96.70;;;;;;5042726;28;20668;-63
2023/01/26 10:36:30;;;;;;;26.17;11.77;;;4.40;96.80;;;;;;5044906;28;20271;-63
2023/01/26 10:39:05;;;;;;;22.37;11.07;;;4.40;96.80;;;;;;5043289;28;20293;-61
2023/01/26 10:41:33;;;;;;;19.37;9.30;;;4.40;96.90;;;;;;5045020;28;20228;-63
2023/01/26 10:44:03;;;;;;;20.43;10.07;;;4.50;97.00;;;;;;5045241;28;20193;-63
2023/01/26 10:46:34;;;;;;;22.00;9.67;;;4.50;96.90;;;;;;5044588;28;20660;-62
2023/01/26 10:49:14;;;;;;;35.37;15.03;;;4.50;96.90;;;;;;5041020;28;20248;-62
2023/01/26 10:51:44;;;;;;;34.33;15.20;;;4.60;97.00;;;;;;5044085;28;20194;-62
2023/01/26 10:54:26;;;;;;;34.30;14.30;;;4.50;97.00;;;;;;5042119;28;20194;-62
2023/01/26 10:56:55;;;;;;;26.90;12.13;;;4.50;97.10;;;;;;5043589;28;20561;-61
2023/01/26 10:59:37;;;;;;;25.97;12.00;;;4.40;97.20;;;;;;5046919;28;20198;-63
2023/01/26 11:02:22;;;;;;;24.50;11.57;;;4.40;97.20;;;;;;5042261;28;20190;-61
2023/01/26 11:05:13;;;;;;;23.23;10.90;;;4.50;97.30;;;;;;5043640;28;20186;-63
2023/01/26 11:07:45;;;;;;;28.70;12.10;;;4.50;97.30;;;;;;5043888;28;20199;-62
2023/01/26 11:10:24;;;;;;;27.93;12.07;;;4.50;97.40;;;;;;5046066;28;20296;-63
2023/01/26 11:13:05;;;;;;;24.27;10.67;;;4.50;97.50;;;;;;5043383;28;20274;-61
2023/01/26 11:15:37;;;;;;;22.67;10.90;;;4.50;97.50;;;;;;5042320;28;20209;-61
2023/01/26 11:18:16;;;;;;;20.30;10.00;;;4.50;97.50;;;;;;5043122;28;20194;-63
2023/01/26 11:20:56;;;;;;;30.57;13.13;;;4.50;97.50;;;;;;5042999;28;20197;-63
2023/01/26 11:23:34;;;;;;;24.77;11.87;;;4.50;97.60;;;;;;5043488;28;20201;-62
2023/01/26 11:26:33;;;;;;;26.63;12.57;;;4.50;97.70;;;;;;5041567;28;20182;-62
2023/01/26 11:29:21;;;;;;;24.60;11.07;;;4.50;97.80;;;;;;5024902;28;20854;-62
2023/01/26 11:31:59;;;;;;;23.90;10.70;;;4.50;97.80;;;;;;5039075;28;20205;-62
2023/01/26 11:34:36;;;;;;;30.10;13.03;;;4.50;97.90;;;;;;5044025;28;20197;-62
2023/01/26 11:37:31;;;;;;;32.27;13.83;;;4.50;98.00;;;;;;5042045;28;20196;-62
2023/01/26 11:40:03;;;;;;;37.13;16.07;;;4.50;98.10;;;;;;5044413;28;20567;-63
2023/01/26 11:42:40;;;;;;;32.00;14.00;;;4.50;98.40;;;;;;5044767;28;20712;-62
2023/01/26 11:45:25;;;;;;;26.83;12.33;;;4.50;98.50;;;;;;5042062;28;20190;-62
2023/01/26 11:48:07;;;;;;;20.40;9.73;;;4.50;98.60;;;;;;5043594;28;20190;-62
2023/01/26 11:50:44;;;;;;;28.57;11.47;;;4.60;98.60;;;;;;5045688;28;20619;-62
2023/01/26 11:53:31;;;;;;;21.93;10.20;;;4.60;98.50;;;;;;5043334;28;20278;-62
2023/01/26 11:56:15;;;;;;;22.23;9.70;;;4.70;98.60;;;;;;5041905;28;20220;-62
2023/01/26 11:58:47;;;;;;;20.50;9.37;;;4.70;98.60;;;;;;5040591;28;20285;-62
2023/01/26 12:01:20;;;;;;;24.60;10.73;;;4.70;98.60;;;;;;5042498;28;20248;-62
2023/01/26 12:03:50;;;;;;;23.40;9.93;;;4.70;98.60;;;;;;5046401;28;20217;-62
2023/01/26 12:06:20;;;;;;;24.77;10.47;;;4.70;98.60;;;;;;5045528;28;20193;-63
2023/01/26 12:08:52;;;;;;;34.00;14.23;;;4.70;98.70;;;;;;5047752;28;20186;-63
2023/01/26 12:11:26;;;;;;;30.80;12.53;;;4.70;98.80;;;;;;5045940;28;21010;-63
2023/01/26 12:14:01;;;;;;;30.60;12.33;;;4.70;98.90;;;;;;5045838;28;20248;-61
2023/01/26 12:16:37;;;;;;;27.03;11.40;;;4.70;98.90;;;;;;5045859;28;20209;-63
2023/01/26 12:19:13;;;;;;;22.87;10.00;;;4.70;99.00;;;;;;5046326;28;20552;-61
2023/01/26 12:21:45;;;;;;;22.27;10.33;;;4.70;99.00;;;;;;5047030;28;20197;-61
2023/01/26 12:24:20;;;;;;;23.83;10.33;;;4.80;99.10;;;;;;5047085;28;20186;-62
2023/01/26 12:26:51;;;;;;;20.67;9.30;;;4.80;99.10;;;;;;5045255;28;20189;-62
2023/01/26 12:29:25;;;;;;;22.60;9.63;;;4.80;99.10;;;;;;5043954;28;20205;-61
2023/01/26 12:31:57;;;;;;;22.43;10.07;;;4.80;99.10;;;;;;5047992;28;20215;-62
2023/01/26 12:34:28;;;;;;;26.53;11.13;;;4.80;99.20;;;;;;5046224;28;20205;-62
2023/01/26 12:37:13;;;;;;;27.53;11.90;;;4.80;99.20;;;;;;5048416;28;20267;-62
2023/01/26 12:39:44;;;;;;;23.30;10.53;;;4.80;99.20;;;;;;5043434;28;20198;-62
2023/01/26 12:42:24;;;;;;;21.03;9.20;;;4.80;99.20;;;;;;5043566;28;20240;-63
2023/01/26 12:44:58;;;;;;;23.70;10.30;;;4.80;99.30;;;;;;5047271;28;20190;-62
2023/01/26 12:47:33;;;;;;;25.93;10.63;;;4.90;99.30;;;;;;5043670;28;20252;-62
2023/01/26 12:50:05;;;;;;;31.03;11.80;;;4.90;99.30;;;;;;5046451;28;20241;-62
2023/01/26 12:52:40;;;;;;;18.63;8.73;;;4.90;99.30;;;;;;5044213;28;20209;-62
2023/01/26 12:55:15;;;;;;;25.33;8.83;;;4.90;99.40;;;;;;5043027;28;20205;-61
2023/01/26 12:57:49;;;;;;;23.67;10.90;;;4.90;99.40;;;;;;5044627;28;20193;-62
2023/01/26 13:00:22;;;;;;;33.43;13.30;;;4.90;99.40;;;;;;5048370;28;20190;-62
2023/01/26 13:02:53;;;;;;;34.47;13.07;;;4.90;99.60;;;;;;5043919;28;20201;-62
2023/01/26 13:05:29;;;;;;;32.73;12.80;;;5.10;99.70;;;;;;5045679;28;20213;-63
2023/01/26 13:07:59;;;;;;;27.43;11.17;;;4.80;99.70;;;;;;5046625;28;20558;-62
2023/01/26 13:10:46;;;;;;;30.23;12.13;;;4.90;99.80;;;;;;5046487;28;20251;-63
2023/01/26 13:13:29;;;;;;;27.40;11.40;;;4.90;99.80;;;;;;5041189;28;20189;-62
2023/01/26 13:16:32;;;;;;;26.70;10.80;;;4.90;99.80;;;;;;5042928;28;20617;-62
2023/01/26 13:19:00;;;;;;;23.30;10.10;;;4.90;99.80;;;;;;5044883;28;20193;-63
2023/01/26 13:21:28;;;;;;;37.13;14.77;;;4.90;99.80;;;;;;5047467;28;21026;-62
2023/01/26 13:23:56;;;;;;;28.63;12.67;;;4.90;99.90;;;;;;5045174;28;20228;-61
2023/01/26 13:26:57;;;;;;;26.80;11.20;;;4.90;99.90;;;;;;5045377;28;20198;-63
2023/01/26 13:29:33;;;;;;;25.60;10.87;;;4.90;99.90;;;;;;5042976;28;20621;-62
2023/01/26 13:32:22;;;;;;;24.97;10.00;;;4.80;99.90;;;;;;5042716;28;20198;-62
2023/01/26 13:34:53;;;;;;;27.47;10.77;;;4.90;99.90;;;;;;5046306;28;20200;-63
2023/01/26 13:37:27;;;;;;;26.20;11.03;;;4.90;99.90;;;;;;5045928;28;20216;-63
2023/01/26 13:40:00;;;;;;;30.90;12.97;;;4.90;99.90;;;;;;5046181;28;20188;-62
2023/01/26 13:42:35;;;;;;;29.80;12.00;;;4.80;99.90;;;;;;5044596;28;20225;-62
2023/01/26 13:45:08;;;;;;;28.57;12.23;;;4.80;99.90;;;;;;5047040;28;20276;-63
2023/01/26 13:47:40;;;;;;;33.37;12.60;;;4.90;99.90;;;;;;5044391;28;20215;-62
2023/01/26 13:50:22;;;;;;;23.63;10.77;;;4.80;99.90;;;;;;5044837;28;20194;-62
2023/01/26 13:52:50;;;;;;;22.37;10.10;;;4.80;99.90;;;;;;5045824;28;20201;-62
2023/01/26 13:55:24;;;;;;;32.13;12.10;;;4.80;99.90;;;;;;5045094;28;20209;-62
2023/01/26 13:58:12;;;;;;;25.90;11.23;;;4.80;99.90;;;;;;5045283;28;20189;-63